Terminal Aerodrome Forecast
Issued by NWS Denver/Boulder, CO

Home | Current Version | Previous Version | Text Only | Print | Product List | Glossary On
Versions: 1 2 3 4 5 6 7 8 9 10 11 12 13 14 15 16 17 18 19 20 21 22 23 24 25 26 27 28 29 30 31 32 33 34 35 36 37 38 39
000
FTUS45 KBOU 160801 AAB
TAFDEN
TAF AMD
KDEN 160801Z 1608/1712 26010KT P6SM FEW150 BKN200
     FM160900 31010KT P6SM SCT100 BKN220
     FM161600 01012KT P6SM SCT080 BKN120
     FM162200 04012KT P6SM VCSH SCT040 OVC080
     FM170200 08010KT P6SM SCT035 OVC060 PROB30 1702/1706 -SHRA
      BKN035
     FM170600 15007KT P6SM SCT035 OVC050 PROB30 1706/1712 3SM -SHSN
      BKN030=

USA.gov is the U.S. government's official web portal to all federal, state and local government web resources and services.